createdAt,value
2018-08-16T00:01:11.862Z,10.73
2018-08-16T00:03:39.894Z,10.20
2018-08-16T00:06:07.909Z,11.83
2018-08-16T00:08:35.958Z,10.97
2018-08-16T00:11:03.914Z,9.80
2018-08-16T00:13:31.956Z,11.40
2018-08-16T00:16:00.003Z,11.57
2018-08-16T00:18:28.007Z,11.23
2018-08-16T00:20:55.978Z,11.57
2018-08-16T00:23:23.947Z,9.67
2018-08-16T00:25:52.187Z,10.83
2018-08-16T00:28:20.274Z,12.07
2018-08-16T00:30:48.150Z,11.60
2018-08-16T00:33:16.189Z,11.67
2018-08-16T00:35:44.280Z,12.57
2018-08-16T00:38:12.358Z,12.07
2018-08-16T00:40:40.339Z,10.90
2018-08-16T00:43:08.335Z,12.23
2018-08-16T00:45:36.475Z,10.93
2018-08-16T00:48:04.699Z,12.27
2018-08-16T00:50:32.759Z,12.23
2018-08-16T00:53:00.740Z,11.33
2018-08-16T00:55:29.078Z,10.87
2018-08-16T00:57:57.352Z,10.20
2018-08-16T01:00:25.397Z,12.87
2018-08-16T01:02:53.393Z,10.87
2018-08-16T01:05:21.437Z,11.10
2018-08-16T01:07:49.417Z,11.83
2018-08-16T01:10:17.441Z,13.07
2018-08-16T01:12:45.440Z,11.30
2018-08-16T01:15:15.208Z,13.10
2018-08-16T01:17:43.284Z,12.03
2018-08-16T01:20:11.744Z,11.97
2018-08-16T01:22:39.828Z,11.30
2018-08-16T01:25:09.582Z,12.90
2018-08-16T01:27:37.650Z,12.50
2018-08-16T01:30:06.800Z,12.70
2018-08-16T01:32:34.960Z,12.93
2018-08-16T01:35:03.193Z,13.23
2018-08-16T01:37:31.162Z,12.70
2018-08-16T01:39:59.182Z,12.47
2018-08-16T01:42:27.645Z,11.90
2018-08-16T01:44:55.743Z,12.40
2018-08-16T01:47:23.720Z,12.20
2018-08-16T01:49:52.240Z,11.63
2018-08-16T01:52:20.207Z,11.87
2018-08-16T01:54:48.150Z,10.70
2018-08-16T01:57:16.281Z,12.87
2018-08-16T01:59:44.425Z,12.30
2018-08-16T02:02:12.460Z,12.80
2018-08-16T02:04:40.395Z,11.67
2018-08-16T02:07:08.487Z,12.00
2018-08-16T02:09:36.543Z,12.37
2018-08-16T02:12:04.504Z,12.10
2018-08-16T02:14:32.575Z,12.83
2018-08-16T02:17:00.680Z,12.30
2018-08-16T02:19:28.620Z,13.13
2018-08-16T02:21:56.670Z,13.07
2018-08-16T02:24:24.642Z,12.27
2018-08-16T02:26:52.614Z,11.97
2018-08-16T02:29:20.538Z,12.77
2018-08-16T02:31:48.573Z,12.83
2018-08-16T02:34:16.658Z,11.80
2018-08-16T02:36:44.799Z,11.83
2018-08-16T02:39:12.808Z,12.77
2018-08-16T02:41:40.883Z,12.63
2018-08-16T02:44:09.154Z,11.93
2018-08-16T02:46:37.194Z,13.03
2018-08-16T02:49:05.315Z,13.30
2018-08-16T02:51:33.525Z,12.57
2018-08-16T02:54:01.781Z,12.43
2018-08-16T02:56:29.882Z,13.10
2018-08-16T02:58:58.108Z,11.93
2018-08-16T03:01:26.105Z,12.17
2018-08-16T03:03:54.498Z,13.17
2018-08-16T03:06:22.509Z,12.57
2018-08-16T03:08:51.303Z,12.73
2018-08-16T03:11:19.239Z,12.67
2018-08-16T03:13:47.466Z,13.47
2018-08-16T03:16:15.498Z,13.97
2018-08-16T03:18:43.395Z,13.67
2018-08-16T03:21:11.413Z,12.73
2018-08-16T03:23:39.495Z,11.53
2018-08-16T03:26:07.623Z,12.43
2018-08-16T03:28:35.627Z,12.00
2018-08-16T03:31:03.764Z,11.63
2018-08-16T03:33:31.811Z,11.90
2018-08-16T03:35:59.798Z,11.77
2018-08-16T03:38:27.754Z,12.63
2018-08-16T03:40:55.824Z,12.90
2018-08-16T03:43:24.752Z,12.83
2018-08-16T03:45:52.842Z,11.97
2018-08-16T03:48:20.863Z,12.27
2018-08-16T03:50:48.899Z,11.33
2018-08-16T03:53:16.963Z,12.07
2018-08-16T03:55:44.941Z,11.87
2018-08-16T03:58:13.285Z,12.63
2018-08-16T04:00:41.539Z,12.37
2018-08-16T04:03:09.556Z,13.47
2018-08-16T04:05:37.513Z,12.20
2018-08-16T04:08:05.655Z,12.23
2018-08-16T04:10:33.973Z,11.30
2018-08-16T04:13:01.986Z,12.43
2018-08-16T04:15:30.059Z,12.47
2018-08-16T04:17:58.087Z,12.60
2018-08-16T04:20:26.015Z,12.30
2018-08-16T04:22:54.066Z,13.27
2018-08-16T04:25:22.100Z,12.40
2018-08-16T04:27:50.086Z,12.77
2018-08-16T04:30:18.048Z,12.77
2018-08-16T04:32:46.023Z,12.60
2018-08-16T04:35:14.271Z,11.77
2018-08-16T04:37:42.133Z,13.03
2018-08-16T04:40:10.116Z,13.23
2018-08-16T04:42:38.042Z,12.40
2018-08-16T04:45:07.360Z,12.43
2018-08-16T04:47:35.347Z,12.90
2018-08-16T04:50:04.097Z,12.23
2018-08-16T04:52:32.203Z,11.37
2018-08-16T04:55:11.267Z,12.87
2018-08-16T04:57:47.872Z,13.10
2018-08-16T05:00:22.170Z,12.77
2018-08-16T05:02:55.485Z,12.37
2018-08-16T05:05:28.757Z,13.27
2018-08-16T05:07:58.933Z,12.07
2018-08-16T05:10:36.074Z,11.47
2018-08-16T05:13:06.876Z,11.87
2018-08-16T05:15:41.121Z,11.77
2018-08-16T05:21:10.691Z,12.30
2018-08-16T05:23:39.489Z,12.37
2018-08-16T05:26:07.387Z,12.47
2018-08-16T05:28:35.342Z,12.23
2018-08-16T05:31:03.390Z,12.10
2018-08-16T05:33:31.498Z,13.30
2018-08-16T05:35:59.474Z,12.67
2018-08-16T05:38:27.492Z,12.87
2018-08-16T05:40:55.521Z,12.33
2018-08-16T05:43:23.669Z,12.37
2018-08-16T05:45:51.553Z,12.33
2018-08-16T05:48:19.547Z,12.57
2018-08-16T05:50:47.685Z,12.47
2018-08-16T05:53:15.659Z,12.43
2018-08-16T05:55:43.668Z,13.47
2018-08-16T05:58:11.654Z,13.17
2018-08-16T06:00:39.631Z,13.80
2018-08-16T06:03:07.732Z,13.53
2018-08-16T06:05:35.917Z,12.40
2018-08-16T06:08:03.952Z,12.50
2018-08-16T06:10:32.058Z,12.83
2018-08-16T06:13:00.062Z,12.47
2018-08-16T06:15:28.021Z,11.97
2018-08-16T06:17:56.047Z,12.10
2018-08-16T06:20:24.110Z,12.20
2018-08-16T06:22:52.029Z,12.50
2018-08-16T06:25:20.026Z,11.40
2018-08-16T06:27:48.000Z,12.07
2018-08-16T06:30:17.367Z,13.23
2018-08-16T06:32:45.963Z,12.90
2018-08-16T06:35:14.116Z,11.17
2018-08-16T06:37:42.319Z,13.03
2018-08-16T06:40:15.864Z,12.33
2018-08-16T06:42:44.805Z,11.63
2018-08-16T06:45:12.896Z,12.87
2018-08-16T06:47:40.997Z,11.70
2018-08-16T06:50:09.399Z,11.90
2018-08-16T06:52:37.571Z,11.77
2018-08-16T06:55:06.562Z,11.00
2018-08-16T06:57:34.720Z,13.50
2018-08-16T07:00:02.790Z,11.47
2018-08-16T07:02:30.768Z,11.93
2018-08-16T07:04:58.911Z,12.37
2018-08-16T07:07:26.857Z,12.87
2018-08-16T07:09:54.866Z,12.03
2018-08-16T07:12:23.048Z,11.83
2018-08-16T07:14:51.138Z,12.90
2018-08-16T07:17:19.112Z,11.60
2018-08-16T07:19:47.150Z,10.63
2018-08-16T07:22:15.137Z,11.20
2018-08-16T07:24:43.044Z,12.10
2018-08-16T07:27:11.313Z,11.90
2018-08-16T07:29:39.311Z,15.00
2018-08-16T07:32:07.353Z,12.70
2018-08-16T07:34:35.394Z,13.23
2018-08-16T07:37:03.463Z,12.60
2018-08-16T07:39:31.455Z,12.40
2018-08-16T07:41:59.566Z,12.10
2018-08-16T07:44:27.473Z,11.67
2018-08-16T07:46:55.820Z,12.20
2018-08-16T07:49:23.917Z,12.20
2018-08-16T07:51:52.108Z,12.30
2018-08-16T07:54:20.192Z,11.40
2018-08-16T07:56:48.211Z,12.63
2018-08-16T07:59:16.424Z,13.50
2018-08-16T08:01:44.452Z,11.83
2018-08-16T08:04:12.630Z,12.53
2018-08-16T08:06:40.734Z,12.10
2018-08-16T08:09:09.723Z,13.83
2018-08-16T08:11:37.759Z,13.10
2018-08-16T08:14:06.509Z,12.63
2018-08-16T08:16:34.449Z,12.50
2018-08-16T08:19:02.446Z,11.03
2018-08-16T08:21:30.483Z,11.12
2018-08-16T08:23:58.565Z,11.55
2018-08-16T08:26:26.608Z,10.88
2018-08-16T08:28:54.750Z,11.60
2018-08-16T08:31:22.894Z,11.25
2018-08-16T08:33:50.915Z,12.40
2018-08-16T08:36:30.515Z,11.33
2018-08-16T08:38:58.812Z,11.18
2018-08-16T08:41:26.644Z,12.05
2018-08-16T08:44:08.951Z,12.18
2018-08-16T08:46:36.980Z,11.57
2018-08-16T08:49:05.354Z,10.72
2018-08-16T08:51:33.428Z,10.82
2018-08-16T08:54:44.096Z,10.55
2018-08-16T08:57:23.430Z,9.73
2018-08-16T08:59:51.370Z,8.95
2018-08-16T09:02:19.406Z,9.95
2018-08-16T09:04:47.509Z,9.58
2018-08-16T09:07:16.745Z,10.40
2018-08-16T09:10:56.536Z,9.75
2018-08-16T09:13:36.390Z,11.12
2018-08-16T09:16:09.347Z,8.60
2018-08-16T09:18:37.416Z,9.25
2018-08-16T09:21:05.892Z,10.43
2018-08-16T09:23:34.376Z,9.85
2018-08-16T09:26:06.833Z,9.83
2018-08-16T09:28:34.923Z,10.35
2018-08-16T09:31:14.054Z,11.48
2018-08-16T09:34:25.134Z,11.12
2018-08-16T09:36:53.182Z,13.00
2018-08-16T09:39:21.171Z,11.35
2018-08-16T09:41:49.227Z,13.80
2018-08-16T09:44:17.169Z,13.72
2018-08-16T09:47:10.097Z,13.68
2018-08-16T09:49:53.764Z,14.00
2018-08-16T09:52:22.158Z,13.55
2018-08-16T09:54:50.517Z,12.25
2018-08-16T09:57:18.647Z,12.65
2018-08-16T09:59:46.608Z,13.38
2018-08-16T10:02:16.114Z,13.88
2018-08-16T10:04:44.029Z,13.78
2018-08-16T10:07:11.936Z,14.15
2018-08-16T10:09:39.962Z,13.53
2018-08-16T10:12:08.016Z,12.88
2018-08-16T10:14:35.955Z,13.15
2018-08-16T10:17:03.959Z,13.00
2018-08-16T10:19:31.908Z,13.48
2018-08-16T10:22:00.086Z,12.98
2018-08-16T10:24:28.081Z,14.53
2018-08-16T10:26:56.052Z,14.65
2018-08-16T10:29:24.007Z,12.85
2018-08-16T10:31:51.959Z,12.90
2018-08-16T10:34:20.370Z,12.33
2018-08-16T10:36:48.405Z,12.05
2018-08-16T10:39:17.653Z,13.53
2018-08-16T10:41:45.912Z,13.00
2018-08-16T10:44:14.285Z,12.40
2018-08-16T10:46:42.093Z,13.40
2018-08-16T10:49:09.805Z,14.60
2018-08-16T10:51:37.537Z,13.58
2018-08-16T10:54:05.327Z,12.70
2018-08-16T10:56:33.187Z,13.75
2018-08-16T10:59:00.953Z,13.83
2018-08-16T11:01:28.828Z,13.25
2018-08-16T11:03:56.451Z,13.78
2018-08-16T11:06:24.159Z,12.82
2018-08-16T11:08:51.898Z,14.47
2018-08-16T11:11:20.503Z,13.80
2018-08-16T11:13:48.264Z,13.40
2018-08-16T11:16:15.994Z,15.28
2018-08-16T11:18:43.768Z,17.15
2018-08-16T11:21:11.765Z,15.32
2018-08-16T11:23:39.452Z,14.13
2018-08-16T11:26:07.260Z,13.28
2018-08-16T11:28:36.452Z,14.43
2018-08-16T11:31:04.559Z,14.73
2018-08-16T11:33:32.958Z,14.63
2018-08-16T11:36:00.697Z,12.95
2018-08-16T11:38:28.397Z,13.45
2018-08-16T11:40:56.313Z,15.55
2018-08-16T11:43:23.924Z,14.73
2018-08-16T11:45:52.037Z,14.10
2018-08-16T11:48:19.813Z,14.45
2018-08-16T11:50:47.775Z,14.13
2018-08-16T11:53:15.565Z,14.20
2018-08-16T11:55:43.353Z,14.90
2018-08-16T11:58:11.157Z,16.90
2018-08-16T12:00:38.877Z,14.83
2018-08-16T12:03:06.795Z,14.18
2018-08-16T12:05:34.537Z,13.25
2018-08-16T12:08:02.337Z,13.68
2018-08-16T12:10:30.003Z,14.53
2018-08-16T12:12:57.741Z,14.05
2018-08-16T12:15:25.400Z,15.75
2018-08-16T12:17:53.088Z,15.88
2018-08-16T12:20:20.811Z,14.70
2018-08-16T12:22:48.521Z,12.10
2018-08-16T12:25:16.183Z,13.75
2018-08-16T12:27:43.858Z,13.80
2018-08-16T12:30:11.711Z,14.00
2018-08-16T12:32:39.389Z,14.70
2018-08-16T12:35:07.744Z,14.78
2018-08-16T12:37:35.519Z,12.90
2018-08-16T12:40:04.105Z,16.12
2018-08-16T12:42:31.834Z,13.95
2018-08-16T12:44:59.499Z,13.72
2018-08-16T12:47:27.219Z,12.80
2018-08-16T12:49:54.805Z,13.62
2018-08-16T12:52:22.830Z,14.00
2018-08-16T12:54:51.027Z,12.80
2018-08-16T12:57:18.833Z,12.98
2018-08-16T12:59:46.525Z,13.32
2018-08-16T13:02:14.923Z,12.60
2018-08-16T13:04:42.651Z,15.75
2018-08-16T13:07:10.302Z,15.15
2018-08-16T13:09:38.104Z,15.15
2018-08-16T13:12:05.847Z,13.72
2018-08-16T13:14:33.496Z,12.85
2018-08-16T13:17:01.265Z,12.43
2018-08-16T13:19:29.095Z,13.90
2018-08-16T13:21:56.854Z,13.48
2018-08-16T13:24:24.805Z,13.08
2018-08-16T13:26:52.670Z,12.88
2018-08-16T13:29:20.350Z,12.40
2018-08-16T13:31:48.071Z,12.90
2018-08-16T13:34:15.700Z,14.20
2018-08-16T13:36:43.396Z,13.58
2018-08-16T13:39:12.611Z,13.43
2018-08-16T13:41:40.283Z,11.80
2018-08-16T13:44:08.170Z,11.18
2018-08-16T13:46:36.009Z,12.55
2018-08-16T13:49:03.768Z,13.45
2018-08-16T13:51:31.569Z,14.07
2018-08-16T13:53:59.309Z,12.33
2018-08-16T13:56:28.189Z,12.10
2018-08-16T13:58:55.875Z,11.33
2018-08-16T14:01:23.657Z,12.03
2018-08-16T14:03:51.337Z,12.45
2018-08-16T14:06:19.042Z,12.33
2018-08-16T14:08:46.709Z,12.53
2018-08-16T14:11:14.453Z,13.68
2018-08-16T14:13:42.265Z,13.60
2018-08-16T14:16:09.990Z,12.98
2018-08-16T14:18:37.899Z,11.95
2018-08-16T14:21:05.592Z,11.53
2018-08-16T14:23:33.526Z,11.78
2018-08-16T14:26:01.264Z,11.33
2018-08-16T14:28:29.229Z,11.63
2018-08-16T14:30:57.074Z,11.63
2018-08-16T14:33:24.835Z,11.33
2018-08-16T14:35:52.509Z,10.60
2018-08-16T14:38:20.283Z,10.65
2018-08-16T14:40:48.026Z,10.50
2018-08-16T14:43:15.711Z,11.33
2018-08-16T14:45:43.636Z,11.25
2018-08-16T14:48:11.589Z,11.28
2018-08-16T14:50:41.000Z,10.82
2018-08-16T14:53:08.932Z,10.90
2018-08-16T14:55:36.971Z,10.98
2018-08-16T14:58:05.810Z,10.82
2018-08-16T15:00:33.523Z,11.60
2018-08-16T15:03:01.565Z,11.05
2018-08-16T15:05:29.348Z,10.85
2018-08-16T15:07:57.000Z,10.60
2018-08-16T15:10:24.663Z,12.23
2018-08-16T15:12:52.409Z,11.95
2018-08-16T15:15:20.136Z,10.68
2018-08-16T15:17:47.811Z,11.43
2018-08-16T15:20:15.509Z,12.18
2018-08-16T15:22:43.296Z,11.40
2018-08-16T15:25:11.011Z,11.83
2018-08-16T15:27:38.708Z,10.88
2018-08-16T15:30:07.225Z,11.78
2018-08-16T15:32:34.959Z,11.10
2018-08-16T15:35:02.744Z,10.82
2018-08-16T15:37:30.490Z,12.37
2018-08-16T15:39:58.193Z,11.93
2018-08-16T15:42:25.910Z,11.35
2018-08-16T15:44:53.669Z,11.73
2018-08-16T15:47:21.328Z,11.45
2018-08-16T15:49:49.115Z,12.53
2018-08-16T15:52:16.800Z,11.65
2018-08-16T15:54:44.471Z,12.10
2018-08-16T15:57:12.149Z,10.40
2018-08-16T15:59:39.856Z,10.65
2018-08-16T16:02:07.909Z,11.22
2018-08-16T16:04:35.587Z,11.45
2018-08-16T16:07:03.356Z,11.53
2018-08-16T16:09:31.040Z,10.98
2018-08-16T16:11:58.726Z,12.00
2018-08-16T16:14:26.431Z,10.95
2018-08-16T16:16:54.217Z,10.25
2018-08-16T16:19:21.893Z,10.95
2018-08-16T16:21:49.607Z,10.80
2018-08-16T16:24:17.337Z,10.45
2018-08-16T16:26:45.088Z,11.35
2018-08-16T16:29:12.788Z,11.10
2018-08-16T16:31:40.609Z,12.15
2018-08-16T16:34:08.704Z,11.43
2018-08-16T16:36:36.402Z,11.22
2018-08-16T16:39:08.096Z,11.50
2018-08-16T16:41:35.781Z,10.72
2018-08-16T16:44:03.484Z,11.25
2018-08-16T16:46:31.210Z,11.00
2018-08-16T16:48:58.941Z,10.48
2018-08-16T16:51:26.607Z,10.45
2018-08-16T16:53:54.304Z,10.93
2018-08-16T16:56:22.078Z,10.82
2018-08-16T16:58:49.901Z,11.45
2018-08-16T17:01:17.643Z,11.48
2018-08-16T17:03:45.354Z,10.87
2018-08-16T17:06:13.106Z,11.50
2018-08-16T17:08:41.013Z,10.33
2018-08-16T17:11:08.817Z,10.55
2018-08-16T17:13:36.671Z,11.27
2018-08-16T17:16:04.495Z,12.27
2018-08-16T17:18:32.204Z,10.97
2018-08-16T17:20:59.888Z,11.08
2018-08-16T17:23:27.599Z,11.80
2018-08-16T17:25:55.334Z,10.80
2018-08-16T17:28:23.086Z,10.80
2018-08-16T17:30:50.748Z,11.30
2018-08-16T17:33:18.463Z,11.43
2018-08-16T17:35:46.146Z,12.53
2018-08-16T17:38:13.832Z,12.67
2018-08-16T17:40:41.546Z,11.30
2018-08-16T17:43:09.298Z,11.40
2018-08-16T17:45:36.996Z,10.43
2018-08-16T17:48:04.680Z,10.50
2018-08-16T17:50:32.570Z,12.43
2018-08-16T17:53:00.291Z,12.47
2018-08-16T17:55:28.007Z,14.57
2018-08-16T17:57:55.826Z,11.37
2018-08-16T18:00:23.752Z,10.83
2018-08-16T18:02:51.491Z,10.57
2018-08-16T18:05:19.218Z,13.53
2018-08-16T18:07:47.015Z,13.87
2018-08-16T18:10:15.099Z,12.23
2018-08-16T18:12:42.792Z,11.57
2018-08-16T18:15:12.208Z,10.57
2018-08-16T18:17:41.354Z,10.67
2018-08-16T18:20:09.295Z,11.83
2018-08-16T18:22:37.477Z,11.53
2018-08-16T18:25:06.122Z,12.53
2018-08-16T18:27:34.347Z,12.87
2018-08-16T18:30:02.602Z,11.40
2018-08-16T18:32:33.080Z,12.77
2018-08-16T18:35:03.465Z,12.03
2018-08-16T18:37:35.820Z,12.30
2018-08-16T18:40:04.566Z,12.63
2018-08-16T18:42:32.872Z,13.87
2018-08-16T18:45:01.237Z,12.27
2018-08-16T18:47:29.652Z,11.97
2018-08-16T18:49:58.006Z,13.37
2018-08-16T18:52:26.312Z,14.23
2018-08-16T18:54:54.535Z,12.87
2018-08-16T18:57:31.409Z,12.37
2018-08-16T19:00:00.022Z,12.23
2018-08-16T19:02:28.353Z,11.87
2018-08-16T19:04:56.703Z,12.20
2018-08-16T19:07:26.742Z,11.83
2018-08-16T19:09:54.737Z,10.87
2018-08-16T19:12:22.905Z,12.60
2018-08-16T19:14:51.678Z,11.90
2018-08-16T19:17:19.811Z,12.93
2018-08-16T19:19:48.251Z,13.17
2018-08-16T19:22:24.097Z,12.03
2018-08-16T19:24:56.988Z,14.03
2018-08-16T19:27:25.035Z,13.27
2018-08-16T19:29:53.312Z,11.80
2018-08-16T19:32:21.515Z,12.73
2018-08-16T19:34:49.648Z,12.37
2018-08-16T19:37:18.005Z,12.70
2018-08-16T19:39:46.320Z,12.30
2018-08-16T19:42:14.619Z,13.57
2018-08-16T19:44:42.690Z,14.70
2018-08-16T19:47:11.912Z,14.67
2018-08-16T19:49:39.951Z,13.70
2018-08-16T19:52:08.068Z,15.43
2018-08-16T19:54:36.112Z,14.30
2018-08-16T19:57:04.144Z,15.93
2018-08-16T19:59:32.356Z,15.00
2018-08-16T20:02:00.645Z,15.33
2018-08-16T20:04:28.780Z,16.10
2018-08-16T20:06:57.010Z,15.50
2018-08-16T20:09:24.986Z,15.77
2018-08-16T20:11:53.053Z,16.30
2018-08-16T20:14:21.093Z,15.60
2018-08-16T20:16:49.163Z,15.73
2018-08-16T20:19:17.260Z,16.63
2018-08-16T20:21:47.222Z,15.63
2018-08-16T20:24:15.427Z,16.13
2018-08-16T20:26:44.016Z,16.43
2018-08-16T20:29:12.167Z,18.03
2018-08-16T20:31:41.517Z,16.57
2018-08-16T20:34:11.238Z,17.07
2018-08-16T20:36:39.371Z,16.57
2018-08-16T20:39:08.353Z,18.23
2018-08-16T20:41:36.471Z,16.77
2018-08-16T20:44:04.842Z,17.57
2018-08-16T20:46:33.022Z,16.93
2018-08-16T20:49:01.211Z,16.20
2018-08-16T20:51:30.645Z,17.53
2018-08-16T20:53:58.847Z,18.10
2018-08-16T20:56:26.996Z,17.40
2018-08-16T20:58:55.081Z,17.43
2018-08-16T21:01:23.063Z,17.77
2018-08-16T21:03:52.545Z,17.47
2018-08-16T21:06:20.925Z,17.30
2018-08-16T21:08:49.056Z,16.83
2018-08-16T21:11:17.214Z,17.10
2018-08-16T21:13:45.303Z,17.23
2018-08-16T21:16:13.382Z,18.67
2018-08-16T21:18:41.390Z,18.73
2018-08-16T21:21:09.458Z,17.37
2018-08-16T21:23:37.600Z,19.03
2018-08-16T21:26:05.748Z,17.83
2018-08-16T21:28:33.789Z,17.90
2018-08-16T21:31:01.858Z,17.47
2018-08-16T21:33:29.880Z,18.60
2018-08-16T21:35:58.026Z,18.63
2018-08-16T21:38:26.049Z,18.10
2018-08-16T21:40:54.018Z,20.13
2018-08-16T21:43:22.142Z,21.37
2018-08-16T21:45:52.259Z,19.73
2018-08-16T21:48:20.341Z,19.53
2018-08-16T21:50:48.372Z,18.57
2018-08-16T21:53:16.428Z,18.57
2018-08-16T21:55:44.521Z,19.17
2018-08-16T21:58:12.814Z,19.70
2018-08-16T22:00:49.938Z,19.17
2018-08-16T22:03:19.866Z,19.73
2018-08-16T22:06:02.135Z,19.73
2018-08-16T22:08:47.319Z,18.27
2018-08-16T22:11:15.374Z,19.17
2018-08-16T22:13:43.602Z,18.73
2018-08-16T22:16:11.618Z,18.77
2018-08-16T22:18:40.800Z,17.93
2018-08-16T22:21:11.130Z,17.73
2018-08-16T22:23:39.302Z,19.23
2018-08-16T22:26:07.539Z,18.23
2018-08-16T22:28:35.649Z,17.93
2018-08-16T22:31:03.770Z,19.53
2018-08-16T22:33:31.856Z,19.37
2018-08-16T22:35:59.920Z,17.40
2018-08-16T22:38:27.850Z,19.00
2018-08-16T22:40:55.871Z,19.37
2018-08-16T22:43:23.819Z,19.13
2018-08-16T22:45:51.890Z,19.40
2018-08-16T22:48:19.966Z,18.30
2018-08-16T22:50:47.948Z,19.53
2018-08-16T22:53:15.917Z,17.17
2018-08-16T22:55:44.001Z,19.63
2018-08-16T22:58:12.106Z,19.23
2018-08-16T23:00:40.078Z,19.20
2018-08-16T23:03:08.092Z,18.47
2018-08-16T23:05:36.143Z,19.60
2018-08-16T23:08:04.326Z,19.00
2018-08-16T23:10:32.278Z,18.43
2018-08-16T23:13:00.443Z,18.93
2018-08-16T23:15:28.462Z,17.80
2018-08-16T23:17:56.464Z,19.03
2018-08-16T23:20:24.427Z,19.00
2018-08-16T23:22:54.559Z,17.93
2018-08-16T23:25:22.525Z,18.40
2018-08-16T23:27:50.476Z,19.43
2018-08-16T23:30:18.529Z,19.63
2018-08-16T23:32:47.667Z,18.37
2018-08-16T23:35:15.645Z,18.47
2018-08-16T23:37:43.627Z,18.07
2018-08-16T23:40:12.905Z,19.43
2018-08-16T23:42:41.132Z,19.97
2018-08-16T23:45:09.887Z,17.97
2018-08-16T23:47:37.959Z,20.10
2018-08-16T23:50:08.294Z,17.87
2018-08-16T23:52:36.307Z,20.20
2018-08-16T23:55:05.222Z,18.77
2018-08-16T23:57:33.166Z,18.70
